createdAt,value
2023-02-19T00:01:11.865Z,3.00
2023-02-19T00:04:20.282Z,2.97
2023-02-19T00:07:22.625Z,2.63
2023-02-19T00:10:24.645Z,2.70
2023-02-19T00:13:26.543Z,2.65
2023-02-19T00:16:31.719Z,2.50
2023-02-19T00:19:33.619Z,2.95
2023-02-19T00:22:35.527Z,2.60
2023-02-19T00:25:37.714Z,2.40
2023-02-19T00:28:39.748Z,2.53
2023-02-19T00:31:42.600Z,2.28
2023-02-19T00:34:44.694Z,2.67
2023-02-19T00:37:46.626Z,2.50
2023-02-19T00:40:48.507Z,2.58
2023-02-19T00:43:51.549Z,2.53
2023-02-19T00:46:53.514Z,3.28
2023-02-19T00:49:55.499Z,2.80
2023-02-19T00:52:57.450Z,2.90
2023-02-19T00:55:59.377Z,2.83
2023-02-19T00:59:01.629Z,2.67
2023-02-19T01:02:04.154Z,2.60
2023-02-19T01:05:06.512Z,2.50
2023-02-19T01:08:08.473Z,2.35
2023-02-19T01:11:12.323Z,2.45
2023-02-19T01:14:14.606Z,2.72
2023-02-19T01:17:16.742Z,2.30
2023-02-19T01:20:18.699Z,2.05
2023-02-19T01:23:20.737Z,2.35
2023-02-19T01:26:25.481Z,2.05
2023-02-19T01:29:27.450Z,2.40
2023-02-19T01:32:29.637Z,2.10
2023-02-19T01:35:31.863Z,2.63
2023-02-19T01:38:34.370Z,2.42
2023-02-19T01:41:40.597Z,2.42
2023-02-19T01:44:45.552Z,2.03
2023-02-19T01:47:55.564Z,2.33
2023-02-19T01:51:09.661Z,2.22
2023-02-19T01:54:14.234Z,2.05
2023-02-19T01:57:22.339Z,2.15
2023-02-19T02:00:24.430Z,1.80
2023-02-19T02:03:29.373Z,1.90
2023-02-19T02:06:38.203Z,1.60
2023-02-19T02:09:40.239Z,1.70
2023-02-19T02:12:42.357Z,2.05
2023-02-19T02:16:10.797Z,1.60
2023-02-19T02:19:48.253Z,2.08
2023-02-19T02:23:01.074Z,1.70
2023-02-19T02:26:33.453Z,1.67
2023-02-19T02:33:33.405Z,1.60
2023-02-19T02:36:41.539Z,1.42
2023-02-19T02:39:47.375Z,1.70
2023-02-19T02:42:49.581Z,1.10
2023-02-19T02:45:51.605Z,1.20
2023-02-19T02:49:09.702Z,1.20
2023-02-19T02:52:12.633Z,1.40
2023-02-19T02:55:16.831Z,1.70
2023-02-19T02:58:21.867Z,1.30
2023-02-19T03:01:41.052Z,1.20
2023-02-19T03:04:52.520Z,1.60
2023-02-19T03:08:18.609Z,1.35
2023-02-19T03:11:21.776Z,1.33
2023-02-19T03:14:33.939Z,1.58
2023-02-19T03:17:52.558Z,1.40
2023-02-19T03:20:58.100Z,1.48
2023-02-19T03:24:00.972Z,1.90
2023-02-19T03:27:04.767Z,1.65
2023-02-19T03:30:18.637Z,1.80
2023-02-19T03:33:25.467Z,1.58
2023-02-19T03:36:57.666Z,1.60
2023-02-19T03:40:00.353Z,1.60
2023-02-19T03:43:34.994Z,1.60
2023-02-19T03:46:43.536Z,1.85
2023-02-19T03:53:07.856Z,1.45
2023-02-19T03:56:31.014Z,1.45
2023-02-19T03:59:49.317Z,1.58
2023-02-19T04:03:07.247Z,1.70
2023-02-19T04:06:18.537Z,1.60
2023-02-19T04:09:22.271Z,1.77
2023-02-19T04:12:32.646Z,1.90
2023-02-19T04:15:36.557Z,1.67
2023-02-19T04:18:41.776Z,1.67
2023-02-19T04:21:46.609Z,1.90
2023-02-19T04:24:50.958Z,1.67
2023-02-19T04:27:54.152Z,2.28
2023-02-19T04:30:56.225Z,1.77
2023-02-19T04:33:58.404Z,1.58
2023-02-19T04:37:00.412Z,1.50
2023-02-19T04:40:05.130Z,1.35
2023-02-19T04:43:07.103Z,1.70
2023-02-19T04:46:09.122Z,1.33
2023-02-19T04:49:11.202Z,1.73
2023-02-19T04:52:14.085Z,1.40
2023-02-19T04:58:17.984Z,1.02
2023-02-19T05:01:20.051Z,1.23
2023-02-19T05:04:22.190Z,1.40
2023-02-19T05:07:24.786Z,1.40
2023-02-19T05:10:26.854Z,1.55
2023-02-19T05:13:29.864Z,1.15
2023-02-19T05:16:32.014Z,1.50
2023-02-19T05:19:33.950Z,1.30
2023-02-19T05:22:35.938Z,1.27
2023-02-19T05:25:37.951Z,1.50
2023-02-19T05:28:40.167Z,1.48
2023-02-19T05:31:42.504Z,1.33
2023-02-19T05:34:44.513Z,1.50
2023-02-19T05:37:46.467Z,1.20
2023-02-19T05:40:48.792Z,1.33
2023-02-19T05:43:51.404Z,1.20
2023-02-19T05:46:53.411Z,1.48
2023-02-19T05:49:55.355Z,1.50
2023-02-19T05:52:59.379Z,1.50
2023-02-19T05:56:01.365Z,1.33
2023-02-19T05:59:06.991Z,1.27
2023-02-19T06:02:09.831Z,1.70
2023-02-19T06:05:12.425Z,1.50
2023-02-19T06:08:15.623Z,1.40
2023-02-19T06:11:19.060Z,1.20
2023-02-19T06:14:21.019Z,1.38
2023-02-19T06:17:23.148Z,1.40
2023-02-19T06:20:26.352Z,1.70
2023-02-19T06:23:29.169Z,1.27
2023-02-19T06:29:33.250Z,1.05
2023-02-19T06:32:35.130Z,1.27
2023-02-19T06:35:37.060Z,1.45
2023-02-19T06:38:39.252Z,1.23
2023-02-19T06:41:41.116Z,1.63
2023-02-19T06:44:43.004Z,1.70
2023-02-19T06:47:44.880Z,1.50
2023-02-19T06:50:46.712Z,1.88
2023-02-19T06:53:48.624Z,1.50
2023-02-19T06:56:50.467Z,1.52
2023-02-19T06:59:52.350Z,1.40
2023-02-19T07:02:54.205Z,1.83
2023-02-19T07:05:59.770Z,1.88
2023-02-19T07:09:02.557Z,1.70
2023-02-19T07:12:04.739Z,1.75
2023-02-19T07:15:07.153Z,1.80
2023-02-19T07:18:09.004Z,1.08
2023-02-19T07:21:13.112Z,1.08
2023-02-19T07:24:15.226Z,1.23
2023-02-19T07:27:17.246Z,1.60
2023-02-19T07:30:19.398Z,1.40
2023-02-19T07:33:21.217Z,1.65
2023-02-19T07:36:24.592Z,1.40
2023-02-19T07:39:26.519Z,1.40
2023-02-19T07:42:30.794Z,1.90
2023-02-19T07:45:32.745Z,1.70
2023-02-19T07:48:36.034Z,1.70
2023-02-19T07:51:37.874Z,1.95
2023-02-19T07:54:39.749Z,1.90
2023-02-19T07:57:41.643Z,1.83
2023-02-19T08:00:43.913Z,1.60
2023-02-19T08:03:47.747Z,2.08
2023-02-19T08:06:52.747Z,2.03
2023-02-19T08:09:54.620Z,1.60
2023-02-19T08:13:00.720Z,1.60
2023-02-19T08:16:16.072Z,1.70
2023-02-19T08:19:20.980Z,1.92
2023-02-19T08:22:22.872Z,1.92
2023-02-19T08:25:24.692Z,1.70
2023-02-19T08:28:27.449Z,1.80
2023-02-19T08:31:29.402Z,1.80
2023-02-19T08:34:34.090Z,1.80
2023-02-19T08:37:36.063Z,1.65
2023-02-19T08:40:39.378Z,1.67
2023-02-19T08:43:42.471Z,2.30
2023-02-19T08:46:44.432Z,2.33
2023-02-19T08:49:46.412Z,1.90
2023-02-19T08:52:48.294Z,1.88
2023-02-19T08:55:50.519Z,2.08
2023-02-19T08:58:52.448Z,2.15
2023-02-19T09:01:54.524Z,1.80
2023-02-19T09:04:56.464Z,2.30
2023-02-19T09:07:58.729Z,1.90
2023-02-19T09:11:02.351Z,2.20
2023-02-19T09:14:04.226Z,2.10
2023-02-19T09:17:07.921Z,1.98
2023-02-19T09:20:12.320Z,2.13
2023-02-19T09:23:14.259Z,2.03
2023-02-19T09:26:16.133Z,1.98
2023-02-19T09:29:18.679Z,1.95
2023-02-19T09:35:22.644Z,2.15
2023-02-19T09:38:24.650Z,1.90
2023-02-19T09:41:30.717Z,2.20
2023-02-19T09:44:42.082Z,1.67
2023-02-19T09:47:43.924Z,1.73
2023-02-19T09:50:49.374Z,1.70
2023-02-19T09:53:53.960Z,2.25
2023-02-19T09:56:57.210Z,1.80
2023-02-19T10:00:23.489Z,1.95
2023-02-19T10:03:37.820Z,1.73
2023-02-19T10:06:39.659Z,1.80
2023-02-19T10:09:41.779Z,1.75
2023-02-19T10:12:47.692Z,1.60
2023-02-19T10:15:56.479Z,1.70
2023-02-19T10:18:58.405Z,1.92
2023-02-19T10:22:02.488Z,1.70
2023-02-19T10:25:04.750Z,1.70
2023-02-19T10:28:14.145Z,1.48
2023-02-19T10:31:21.763Z,2.03
2023-02-19T10:34:23.970Z,1.50
2023-02-19T10:37:26.018Z,1.95
2023-02-19T10:40:28.951Z,2.00
2023-02-19T10:43:34.941Z,1.90
2023-02-19T10:46:44.451Z,1.60
2023-02-19T10:49:47.161Z,1.65
2023-02-19T10:52:54.249Z,1.90
2023-02-19T10:56:08.220Z,1.98
2023-02-19T10:59:19.242Z,1.88
2023-02-19T11:02:22.090Z,1.67
2023-02-19T11:05:23.949Z,1.65
2023-02-19T11:08:25.862Z,1.48
2023-02-19T11:11:38.025Z,1.50
2023-02-19T11:14:44.342Z,1.63
2023-02-19T11:17:55.116Z,2.08
2023-02-19T11:20:58.891Z,1.90
2023-02-19T11:24:03.595Z,2.15
2023-02-19T11:27:07.522Z,1.80
2023-02-19T11:30:22.129Z,1.48
2023-02-19T11:33:27.744Z,1.50
2023-02-19T11:36:35.266Z,1.50
2023-02-19T11:39:37.484Z,1.77
2023-02-19T11:42:53.713Z,2.30
2023-02-19T11:46:13.028Z,1.98
2023-02-19T11:49:40.645Z,2.47
2023-02-19T12:03:17.799Z,1.70
2023-02-19T12:06:42.804Z,1.60
2023-02-19T12:10:06.767Z,1.50
2023-02-19T12:13:28.604Z,1.83
2023-02-19T12:16:39.977Z,1.92
2023-02-19T12:19:51.499Z,1.83
2023-02-19T12:23:05.322Z,2.28
2023-02-19T12:26:32.632Z,2.50
2023-02-19T12:30:15.575Z,2.30
2023-02-19T12:33:45.656Z,2.75
2023-02-19T12:37:20.334Z,2.47
2023-02-19T12:40:54.432Z,2.58
2023-02-19T12:44:05.665Z,2.13
2023-02-19T12:47:18.356Z,2.70
2023-02-19T12:50:25.248Z,2.40
2023-02-19T12:53:40.341Z,2.00
2023-02-19T12:57:01.891Z,2.35
2023-02-19T13:00:21.610Z,2.63
2023-02-19T13:03:32.753Z,2.10
2023-02-19T13:07:02.318Z,1.95
2023-02-19T13:10:29.880Z,2.08
2023-02-19T13:13:47.319Z,1.80
2023-02-19T13:16:54.545Z,1.92
2023-02-19T13:20:07.710Z,2.58
2023-02-19T13:23:18.755Z,1.75
2023-02-19T13:26:38.780Z,1.60
2023-02-19T13:29:55.175Z,1.55
2023-02-19T13:33:41.387Z,1.70
2023-02-19T13:36:45.636Z,1.70
2023-02-19T13:39:50.397Z,1.73
2023-02-19T13:42:55.982Z,1.45
2023-02-19T13:46:07.831Z,1.50
2023-02-19T13:49:28.300Z,1.65
2023-02-19T13:52:30.315Z,1.48
2023-02-19T13:55:44.318Z,1.60
2023-02-19T13:58:59.101Z,1.15
2023-02-19T14:02:01.208Z,1.60
2023-02-19T14:05:12.646Z,1.40
2023-02-19T14:08:50.329Z,1.35
2023-02-19T14:11:52.242Z,1.60
2023-02-19T14:14:55.062Z,1.40
2023-02-19T14:17:57.466Z,1.88
2023-02-19T14:21:15.443Z,1.65
2023-02-19T14:24:17.561Z,1.80
2023-02-19T14:27:21.008Z,1.30
2023-02-19T14:30:23.850Z,2.03
2023-02-19T14:33:35.366Z,1.77
2023-02-19T14:36:47.242Z,1.80
2023-02-19T14:39:49.529Z,1.77
2023-02-19T14:42:57.283Z,1.50
2023-02-19T14:46:04.489Z,1.50
2023-02-19T14:49:45.417Z,1.75
2023-02-19T14:52:53.659Z,1.67
2023-02-19T14:55:56.629Z,1.70
2023-02-19T14:59:13.945Z,1.35
2023-02-19T15:02:16.996Z,1.90
2023-02-19T15:05:25.998Z,1.75
2023-02-19T15:08:33.012Z,1.77
2023-02-19T15:11:35.394Z,1.73
2023-02-19T15:17:53.487Z,1.20
2023-02-19T15:21:04.026Z,1.45
2023-02-19T15:24:07.100Z,1.75
2023-02-19T15:27:20.575Z,1.38
2023-02-19T15:30:25.658Z,1.50
2023-02-19T15:33:28.297Z,1.55
2023-02-19T15:36:33.945Z,1.88
2023-02-19T15:39:45.760Z,1.73
2023-02-19T15:42:48.666Z,2.15
2023-02-19T15:45:58.590Z,2.10
2023-02-19T15:49:08.328Z,1.60
2023-02-19T15:52:21.184Z,2.20
2023-02-19T15:55:41.574Z,2.08
2023-02-19T15:59:04.499Z,2.05
2023-02-19T16:02:11.908Z,1.90
2023-02-19T16:05:22.880Z,2.20
2023-02-19T16:08:38.641Z,1.95
2023-02-19T16:15:19.826Z,1.88
2023-02-19T16:18:22.317Z,2.33
2023-02-19T16:24:45.261Z,1.73
2023-02-19T16:31:00.751Z,2.20
2023-02-19T16:34:17.672Z,1.77
2023-02-19T16:37:40.895Z,2.10
2023-02-19T16:40:49.123Z,2.60
2023-02-19T16:43:51.079Z,2.47
2023-02-19T16:46:57.205Z,2.50
2023-02-19T16:50:03.678Z,2.53
2023-02-19T16:53:05.739Z,2.00
2023-02-19T16:56:14.025Z,1.27
2023-02-19T16:59:16.957Z,1.58
2023-02-19T17:02:22.240Z,1.75
2023-02-19T17:05:27.416Z,1.67
2023-02-19T17:08:36.972Z,1.45
2023-02-19T17:11:39.791Z,1.90
2023-02-19T17:14:41.745Z,1.45
2023-02-19T17:17:43.997Z,1.23
2023-02-19T17:20:52.120Z,1.80
2023-02-19T17:23:54.906Z,1.52
2023-02-19T17:26:56.866Z,1.60
2023-02-19T17:33:27.548Z,1.30
2023-02-19T17:36:31.757Z,2.22
2023-02-19T17:39:33.657Z,1.73
2023-02-19T17:42:35.644Z,1.70
2023-02-19T17:45:39.897Z,1.48
2023-02-19T17:51:49.738Z,1.83
2023-02-19T17:54:51.850Z,1.55
2023-02-19T17:57:54.184Z,1.70
2023-02-19T18:00:56.204Z,1.60
2023-02-19T18:04:01.258Z,1.60
2023-02-19T18:07:03.544Z,1.77
2023-02-19T18:13:14.793Z,2.15
2023-02-19T18:16:16.868Z,2.08
2023-02-19T18:19:19.068Z,2.33
2023-02-19T18:22:21.991Z,2.10
2023-02-19T18:25:24.524Z,2.50
2023-02-19T18:28:26.596Z,2.78
2023-02-19T18:31:31.327Z,1.88
2023-02-19T18:34:33.422Z,2.60
2023-02-19T18:37:35.521Z,2.85
2023-02-19T18:40:37.460Z,2.28
2023-02-19T18:43:41.961Z,2.10
2023-02-19T18:46:44.049Z,1.83
2023-02-19T18:49:50.817Z,2.17
2023-02-19T18:52:52.639Z,2.42
2023-02-19T18:55:54.548Z,2.75
2023-02-19T18:58:57.311Z,2.05
2023-02-19T19:05:03.729Z,2.30
2023-02-19T19:08:05.579Z,2.35
2023-02-19T19:11:07.463Z,1.80
2023-02-19T19:14:15.657Z,2.65
2023-02-19T19:17:17.601Z,2.15
2023-02-19T19:20:22.078Z,2.03
2023-02-19T19:23:31.030Z,2.10
2023-02-19T19:26:33.933Z,2.30
2023-02-19T19:29:35.829Z,1.98
2023-02-19T19:32:38.214Z,2.22
2023-02-19T19:35:40.084Z,1.77
2023-02-19T19:38:42.493Z,2.20
2023-02-19T19:41:44.349Z,2.22
2023-02-19T19:47:59.818Z,2.08
2023-02-19T19:51:01.730Z,2.63
2023-02-19T19:54:03.741Z,2.05
2023-02-19T20:00:16.222Z,2.15
2023-02-19T20:03:21.428Z,2.15
2023-02-19T20:06:28.246Z,2.08
2023-02-19T20:09:30.121Z,2.00
2023-02-19T20:12:33.479Z,1.83
2023-02-19T20:15:35.612Z,2.30
2023-02-19T20:18:39.991Z,2.13
2023-02-19T20:21:51.070Z,1.98
2023-02-19T20:24:59.499Z,2.30
2023-02-19T20:28:08.748Z,2.03
2023-02-19T20:31:11.062Z,2.30
2023-02-19T20:34:13.133Z,2.13
2023-02-19T20:37:18.913Z,1.73
2023-02-19T20:40:20.890Z,1.88
2023-02-19T20:43:23.005Z,1.88
2023-02-19T20:46:25.401Z,2.20
2023-02-19T20:49:30.323Z,2.28
2023-02-19T20:52:32.232Z,2.80
2023-02-19T20:55:34.215Z,2.92
2023-02-19T21:01:44.958Z,2.00
2023-02-19T21:04:46.983Z,2.03
2023-02-19T21:07:48.853Z,2.10
2023-02-19T21:10:50.830Z,2.33
2023-02-19T21:13:53.066Z,2.20
2023-02-19T21:16:55.553Z,2.35
2023-02-19T21:19:57.491Z,2.40
2023-02-19T21:22:59.440Z,2.40
2023-02-19T21:26:04.738Z,2.05
2023-02-19T21:29:08.599Z,3.00
2023-02-19T21:32:10.832Z,2.90
2023-02-19T21:35:12.817Z,2.83
2023-02-19T21:38:14.958Z,2.60
2023-02-19T21:41:16.843Z,2.65
2023-02-19T21:44:21.651Z,2.70
2023-02-19T21:47:23.460Z,2.80
2023-02-19T21:50:25.394Z,3.00
2023-02-19T21:53:27.225Z,2.95
2023-02-19T21:56:35.061Z,2.72
2023-02-19T21:59:37.894Z,2.78
2023-02-19T22:02:39.775Z,2.40
2023-02-19T22:05:41.761Z,2.80
2023-02-19T22:08:44.598Z,2.47
2023-02-19T22:11:46.586Z,3.55
2023-02-19T22:14:48.519Z,2.80
2023-02-19T22:17:50.518Z,2.20
2023-02-19T22:20:52.646Z,2.45
2023-02-19T22:23:55.265Z,2.28
2023-02-19T22:26:58.334Z,3.10
2023-02-19T22:30:00.296Z,2.58
2023-02-19T22:33:02.546Z,2.63
2023-02-19T22:36:04.849Z,2.40
2023-02-19T22:39:08.049Z,2.30
2023-02-19T22:42:10.018Z,2.33
2023-02-19T22:45:12.963Z,3.20
2023-02-19T22:48:19.219Z,2.22
2023-02-19T22:51:27.140Z,2.53
2023-02-19T22:54:29.311Z,2.20
2023-02-19T22:57:31.200Z,2.40
2023-02-19T23:00:35.310Z,2.75
2023-02-19T23:03:51.795Z,2.05
2023-02-19T23:06:53.808Z,2.58
2023-02-19T23:09:55.644Z,2.08
2023-02-19T23:12:57.521Z,2.63
2023-02-19T23:15:59.468Z,3.65
2023-02-19T23:19:05.644Z,2.60
2023-02-19T23:22:07.498Z,2.22
2023-02-19T23:25:10.356Z,2.70
2023-02-19T23:28:12.267Z,2.90
2023-02-19T23:31:15.172Z,3.10
2023-02-19T23:34:18.454Z,2.85
2023-02-19T23:37:20.302Z,2.65
2023-02-19T23:40:22.167Z,2.92
2023-02-19T23:43:24.027Z,2.53
2023-02-19T23:46:26.015Z,2.80
2023-02-19T23:49:27.942Z,2.92
2023-02-19T23:52:29.839Z,2.40
2023-02-19T23:55:32.082Z,2.42
2023-02-19T23:58:34.046Z,2.35
